createdAt,value
2023-06-16T00:00:41.520Z,4014.00
2023-06-16T00:01:41.548Z,4002.00
2023-06-16T00:02:41.526Z,4004.00
2023-06-16T00:03:41.613Z,4008.00
2023-06-16T00:04:41.543Z,4023.00
2023-06-16T00:05:41.548Z,3993.00
2023-06-16T00:06:41.573Z,3997.00
2023-06-16T00:07:41.612Z,4017.00
2023-06-16T00:08:41.618Z,3998.00
2023-06-16T00:09:41.587Z,4005.00
2023-06-16T00:10:41.629Z,4000.00
2023-06-16T00:11:41.599Z,4001.00
2023-06-16T00:12:41.756Z,4000.00
2023-06-16T00:13:41.595Z,4003.00
2023-06-16T00:14:41.639Z,3993.00
2023-06-16T00:15:41.607Z,4006.00
2023-06-16T00:16:41.632Z,3999.00
2023-06-16T00:17:41.658Z,3985.00
2023-06-16T00:18:41.605Z,3974.00
2023-06-16T00:19:41.652Z,3989.00
2023-06-16T00:20:41.639Z,3960.00
2023-06-16T00:21:41.643Z,3972.00
2023-06-16T00:22:41.653Z,3957.00
2023-06-16T00:23:41.661Z,3969.00
2023-06-16T00:24:41.666Z,3981.00
2023-06-16T00:25:41.668Z,3981.00
2023-06-16T00:26:41.675Z,3961.00
2023-06-16T00:27:41.686Z,3972.00
2023-06-16T00:28:41.691Z,3967.00
2023-06-16T00:29:41.663Z,3966.00
2023-06-16T00:30:41.703Z,3942.00
2023-06-16T00:31:41.734Z,3966.00
2023-06-16T00:32:41.880Z,3958.00
2023-06-16T00:33:41.687Z,3955.00
2023-06-16T00:34:41.683Z,3953.00
2023-06-16T00:35:41.688Z,3966.00
2023-06-16T00:36:41.696Z,3958.00
2023-06-16T00:37:41.778Z,3965.00
2023-06-16T00:38:41.683Z,3951.00
2023-06-16T00:39:41.660Z,3957.00
2023-06-16T00:40:41.665Z,3958.00
2023-06-16T00:41:41.668Z,3946.00
2023-06-16T00:42:41.676Z,3958.00
2023-06-16T00:43:41.674Z,3952.00
2023-06-16T00:44:41.691Z,3948.00
2023-06-16T00:45:41.666Z,3922.00
2023-06-16T00:46:41.765Z,3937.00
2023-06-16T00:47:41.670Z,3935.00
2023-06-16T00:48:41.686Z,3924.00
2023-06-16T00:49:41.685Z,3928.00
2023-06-16T00:50:41.683Z,3926.00
2023-06-16T00:51:41.705Z,3913.00
2023-06-16T00:52:41.686Z,3892.00
2023-06-16T00:53:41.682Z,3906.00
2023-06-16T00:54:41.673Z,3917.00
2023-06-16T00:55:41.683Z,3913.00
2023-06-16T00:56:41.697Z,3917.00
2023-06-16T00:57:41.699Z,3917.00
2023-06-16T00:58:41.707Z,3903.00
2023-06-16T00:59:41.690Z,3914.00
2023-06-16T01:00:41.688Z,3904.00
2023-06-16T01:01:41.736Z,3914.00
2023-06-16T01:02:41.779Z,3903.00
2023-06-16T01:03:41.685Z,3900.00
2023-06-16T01:04:41.700Z,3893.00
2023-06-16T01:05:41.716Z,3886.00
2023-06-16T01:06:41.701Z,3897.00
2023-06-16T01:07:41.796Z,3879.00
2023-06-16T01:08:41.732Z,3883.00
2023-06-16T01:09:41.735Z,3881.00
2023-06-16T01:10:41.733Z,3878.00
2023-06-16T01:11:41.738Z,3873.00
2023-06-16T01:12:41.731Z,3884.00
2023-06-16T01:13:41.713Z,3875.00
2023-06-16T01:14:41.754Z,3872.00
2023-06-16T01:15:41.756Z,3870.00
2023-06-16T01:16:41.766Z,3872.00
2023-06-16T01:17:41.792Z,3872.00
2023-06-16T01:18:41.788Z,3857.00
2023-06-16T01:19:41.793Z,3862.00
2023-06-16T01:20:41.799Z,3847.00
2023-06-16T01:21:41.810Z,3862.00
2023-06-16T01:22:41.765Z,3844.00
2023-06-16T01:23:41.742Z,3859.00
2023-06-16T01:24:41.758Z,3842.00
2023-06-16T01:25:41.719Z,3852.00
2023-06-16T01:26:41.774Z,3837.00
2023-06-16T01:27:41.733Z,3845.00
2023-06-16T01:28:41.791Z,3847.00
2023-06-16T01:29:41.757Z,3850.00
2023-06-16T01:30:41.763Z,3838.00
2023-06-16T01:31:41.773Z,3826.00
2023-06-16T01:32:41.789Z,3828.00
2023-06-16T01:33:41.812Z,3828.00
2023-06-16T01:34:41.784Z,3811.00
2023-06-16T01:35:41.788Z,3818.00
2023-06-16T01:36:41.797Z,3819.00
2023-06-16T01:37:41.770Z,3807.00
2023-06-16T01:38:41.787Z,3810.00
2023-06-16T01:39:41.899Z,3811.00
2023-06-16T01:40:41.842Z,3813.00
2023-06-16T01:41:41.881Z,3806.00
2023-06-16T01:42:41.809Z,3801.00
2023-06-16T01:43:41.809Z,3809.00
2023-06-16T01:44:41.820Z,3794.00
2023-06-16T01:45:41.820Z,3796.00
2023-06-16T01:46:41.896Z,3791.00
2023-06-16T01:47:41.891Z,3796.00
2023-06-16T01:48:41.849Z,3777.00
2023-06-16T01:49:41.825Z,3788.00
2023-06-16T01:50:41.819Z,3779.00
2023-06-16T01:51:41.873Z,3791.00
2023-06-16T01:52:41.874Z,3792.00
2023-06-16T01:53:41.872Z,3772.00
2023-06-16T01:54:41.891Z,3769.00
2023-06-16T01:55:41.898Z,3769.00
2023-06-16T01:56:41.966Z,3752.00
2023-06-16T01:57:41.914Z,3759.00
2023-06-16T01:58:41.885Z,3740.00
2023-06-16T01:59:41.930Z,3756.00
2023-06-16T02:00:41.922Z,3760.00
2023-06-16T02:01:41.891Z,3735.00
2023-06-16T02:02:42.016Z,3758.00
2023-06-16T02:03:41.995Z,3749.00
2023-06-16T02:04:41.955Z,3739.00
2023-06-16T02:05:41.928Z,3740.00
2023-06-16T02:06:41.973Z,3750.00
2023-06-16T02:07:41.980Z,3738.00
2023-06-16T02:08:42.023Z,3735.00
2023-06-16T02:09:42.003Z,3724.00
2023-06-16T02:10:42.032Z,3717.00
2023-06-16T02:11:42.026Z,3705.00
2023-06-16T02:12:42.003Z,3710.00
2023-06-16T02:13:42.164Z,3721.00
2023-06-16T02:14:42.037Z,3717.00
2023-06-16T02:15:42.095Z,3718.00
2023-06-16T02:16:42.087Z,3719.00
2023-06-16T02:17:42.107Z,3727.00
2023-06-16T02:18:42.090Z,3721.00
2023-06-16T02:19:42.172Z,3744.00
2023-06-16T02:20:42.116Z,3738.00
2023-06-16T02:21:42.129Z,3725.00
2023-06-16T02:22:42.106Z,3710.00
2023-06-16T02:23:42.113Z,3712.00
2023-06-16T02:24:42.148Z,3718.00
2023-06-16T02:25:42.145Z,3720.00
2023-06-16T02:26:42.214Z,3732.00
2023-06-16T02:27:42.223Z,3722.00
2023-06-16T02:28:42.193Z,3729.00
2023-06-16T02:29:42.234Z,3714.00
2023-06-16T02:30:42.225Z,3715.00
2023-06-16T02:31:42.397Z,3721.00
2023-06-16T02:32:49.704Z,3711.00
2023-06-16T02:33:43.240Z,3712.00
2023-06-16T02:34:42.222Z,3714.00
2023-06-16T02:35:42.223Z,3716.00
2023-06-16T02:36:42.222Z,3713.00
2023-06-16T02:37:42.217Z,3706.00
2023-06-16T02:38:42.192Z,3713.00
2023-06-16T02:39:42.204Z,3722.00
2023-06-16T02:40:42.193Z,3703.00
2023-06-16T02:41:42.171Z,3724.00
2023-06-16T02:42:42.190Z,3727.00
2023-06-16T02:43:42.159Z,3711.00
2023-06-16T02:44:42.156Z,3718.00
2023-06-16T02:45:42.151Z,3733.00
2023-06-16T02:46:42.195Z,3748.00
2023-06-16T02:47:42.133Z,3720.00
2023-06-16T02:48:42.120Z,3723.00
2023-06-16T02:49:42.130Z,3719.00
2023-06-16T02:50:42.109Z,3728.00
2023-06-16T02:51:42.107Z,3720.00
2023-06-16T02:52:42.134Z,3710.00
2023-06-16T02:53:42.099Z,3727.00
2023-06-16T02:54:42.085Z,3714.00
2023-06-16T02:55:42.109Z,3702.00
2023-06-16T02:56:42.073Z,3715.00
2023-06-16T02:57:42.088Z,3706.00
2023-06-16T02:58:42.065Z,3699.00
2023-06-16T02:59:42.064Z,3693.00
2023-06-16T03:00:42.123Z,3713.00
2023-06-16T03:01:42.075Z,3709.00
2023-06-16T03:02:42.124Z,3684.00
2023-06-16T03:03:42.143Z,3680.00
2023-06-16T03:04:42.133Z,3698.00
2023-06-16T03:05:42.137Z,3701.00
2023-06-16T03:06:42.230Z,3684.00
2023-06-16T03:07:42.136Z,3681.00
2023-06-16T03:08:42.185Z,3691.00
2023-06-16T03:09:42.225Z,3685.00
2023-06-16T03:10:42.221Z,3703.00
2023-06-16T03:11:42.378Z,3666.00
2023-06-16T03:12:42.258Z,3695.00
2023-06-16T03:13:42.264Z,3685.00
2023-06-16T03:14:42.265Z,3696.00
2023-06-16T03:15:42.348Z,3723.00
2023-06-16T03:16:42.368Z,3719.00
2023-06-16T03:17:42.371Z,3728.00
2023-06-16T03:18:42.329Z,3743.00
2023-06-16T03:19:42.340Z,3723.00
2023-06-16T03:20:42.347Z,3706.00
2023-06-16T03:21:42.341Z,3718.00
2023-06-16T03:22:42.429Z,3692.00
2023-06-16T03:23:42.381Z,3699.00
2023-06-16T03:24:42.442Z,3687.00
2023-06-16T03:25:42.467Z,3693.00
2023-06-16T03:26:42.485Z,3702.00
2023-06-16T03:27:42.532Z,3688.00
2023-06-16T03:28:42.572Z,3691.00
2023-06-16T03:29:42.526Z,3677.00
2023-06-16T03:30:42.563Z,3687.00
2023-06-16T03:31:42.602Z,3684.00
2023-06-16T03:32:42.616Z,3697.00
2023-06-16T03:33:42.619Z,3682.00
2023-06-16T03:34:42.640Z,3671.00
2023-06-16T03:35:42.652Z,3665.00
2023-06-16T03:36:42.653Z,3699.00
2023-06-16T03:37:42.666Z,3675.00
2023-06-16T03:38:42.740Z,3661.00
2023-06-16T03:39:42.810Z,3673.00
2023-06-16T03:40:42.768Z,3672.00
2023-06-16T03:41:42.778Z,3657.00
2023-06-16T03:42:42.804Z,3661.00
2023-06-16T03:43:42.816Z,3665.00
2023-06-16T03:44:42.838Z,3672.00
2023-06-16T03:45:42.928Z,3676.00
2023-06-16T03:46:42.892Z,3658.00
2023-06-16T03:47:42.973Z,3652.00
2023-06-16T03:48:42.932Z,3668.00
2023-06-16T03:49:42.916Z,3651.00
2023-06-16T03:50:42.949Z,3635.00
2023-06-16T03:51:42.998Z,3651.00
2023-06-16T03:52:43.003Z,3654.00
2023-06-16T03:53:43.010Z,3663.00
2023-06-16T03:54:43.088Z,3636.00
2023-06-16T03:55:43.051Z,3660.00
2023-06-16T03:56:43.104Z,3666.00
2023-06-16T03:57:43.113Z,3665.00
2023-06-16T03:58:43.109Z,3659.00
2023-06-16T03:59:43.165Z,3665.00
2023-06-16T04:00:43.161Z,3643.00
2023-06-16T04:01:43.188Z,3648.00
2023-06-16T04:02:43.254Z,3623.00
2023-06-16T04:03:43.299Z,3550.00
2023-06-16T04:04:43.251Z,3487.00
2023-06-16T04:05:43.273Z,3460.00
2023-06-16T04:06:43.300Z,3418.00
2023-06-16T04:07:43.321Z,3357.00
2023-06-16T04:08:43.338Z,3316.00
2023-06-16T04:09:43.438Z,3262.00
2023-06-16T04:10:43.484Z,3216.00
2023-06-16T04:11:43.457Z,3175.00
2023-06-16T04:12:43.483Z,3119.00
2023-06-16T04:13:43.529Z,3072.00
2023-06-16T04:14:43.569Z,3020.00
2023-06-16T04:15:43.597Z,2975.00
2023-06-16T04:16:43.805Z,2921.00
2023-06-16T04:17:43.766Z,2862.00
2023-06-16T04:18:43.686Z,2828.00
2023-06-16T04:19:43.748Z,2802.00
2023-06-16T04:20:43.770Z,2751.00
2023-06-16T04:21:43.851Z,2724.00
2023-06-16T04:22:43.854Z,2694.00
2023-06-16T04:23:43.902Z,2680.00
2023-06-16T04:24:43.905Z,2655.00
2023-06-16T04:25:43.981Z,2618.00
2023-06-16T04:26:43.993Z,2623.00
2023-06-16T04:27:44.029Z,2602.00
2023-06-16T04:28:44.054Z,2577.00
2023-06-16T04:29:44.103Z,2559.00
2023-06-16T04:30:44.289Z,2564.00
2023-06-16T04:31:44.158Z,2565.00
2023-06-16T04:32:44.293Z,2584.00
2023-06-16T04:33:44.249Z,2587.00
2023-06-16T04:34:44.382Z,2626.00
2023-06-16T04:35:44.328Z,2625.00
2023-06-16T04:36:44.374Z,2661.00
2023-06-16T04:37:44.415Z,2685.00
2023-06-16T04:38:44.424Z,2698.00
2023-06-16T04:39:44.522Z,2705.00
2023-06-16T04:40:44.520Z,2741.00
2023-06-16T04:41:44.531Z,2772.00
2023-06-16T04:42:44.565Z,2789.00
2023-06-16T04:43:44.550Z,2809.00
2023-06-16T04:44:44.564Z,2822.00
2023-06-16T04:45:44.701Z,2824.00
2023-06-16T04:46:44.722Z,2858.00
2023-06-16T04:47:44.677Z,2867.00
2023-06-16T04:48:44.747Z,2883.00
2023-06-16T04:49:44.699Z,2896.00
2023-06-16T04:50:44.735Z,2918.00
2023-06-16T04:51:44.783Z,2940.00
2023-06-16T04:52:44.834Z,2950.00
2023-06-16T04:53:45.177Z,2977.00
2023-06-16T04:54:44.844Z,3007.00
2023-06-16T04:55:44.869Z,3030.00
2023-06-16T04:56:44.891Z,3051.00
2023-06-16T04:57:44.937Z,3072.00
2023-06-16T04:58:44.913Z,3099.00
2023-06-16T04:59:44.920Z,3110.00
2023-06-16T05:00:44.974Z,3134.00
2023-06-16T05:01:44.990Z,3176.00
2023-06-16T05:02:45.057Z,3169.00
2023-06-16T05:03:45.104Z,3180.00
2023-06-16T05:04:45.240Z,3171.00
2023-06-16T05:05:45.020Z,3159.00
2023-06-16T05:06:45.013Z,3189.00
2023-06-16T05:07:45.051Z,3192.00
2023-06-16T05:08:45.060Z,3182.00
2023-06-16T05:09:45.076Z,3200.00
2023-06-16T05:10:45.109Z,3223.00
2023-06-16T05:11:45.088Z,3229.00
2023-06-16T05:12:45.109Z,3235.00
2023-06-16T05:13:45.125Z,3248.00
2023-06-16T05:14:45.101Z,3256.00
2023-06-16T05:15:45.108Z,3263.00
2023-06-16T05:16:45.182Z,3261.00
2023-06-16T05:17:45.239Z,3249.00
2023-06-16T05:18:45.309Z,3280.00
2023-06-16T05:19:45.164Z,3279.00
2023-06-16T05:20:45.198Z,3288.00
2023-06-16T05:21:45.175Z,3291.00
2023-06-16T05:22:45.163Z,3281.00
2023-06-16T05:23:45.248Z,3284.00
2023-06-16T05:24:45.228Z,3291.00
2023-06-16T05:25:45.214Z,3308.00
2023-06-16T05:26:45.253Z,3308.00
2023-06-16T05:27:45.233Z,3328.00
2023-06-16T05:28:45.236Z,3323.00
2023-06-16T05:29:45.279Z,3355.00
2023-06-16T05:30:45.305Z,3343.00
2023-06-16T05:31:45.271Z,3340.00
2023-06-16T05:32:45.323Z,3352.00
2023-06-16T05:33:45.304Z,3336.00
2023-06-16T05:34:45.370Z,3212.00
2023-06-16T05:35:45.354Z,3169.00
2023-06-16T05:36:45.387Z,3118.00
2023-06-16T05:37:45.453Z,3129.00
2023-06-16T05:38:45.506Z,3141.00
2023-06-16T05:39:45.496Z,3089.00
2023-06-16T05:40:45.526Z,3076.00
2023-06-16T05:41:45.554Z,3074.00
2023-06-16T05:42:45.568Z,2997.00
2023-06-16T05:43:45.662Z,2972.00
2023-06-16T05:44:45.713Z,2868.00
2023-06-16T05:45:46.062Z,2838.00
2023-06-16T05:46:45.690Z,2880.00
2023-06-16T05:47:45.700Z,2891.00
2023-06-16T05:48:45.761Z,2895.00
2023-06-16T05:49:45.825Z,2882.00
2023-06-16T05:50:45.837Z,2907.00
2023-06-16T05:51:45.853Z,2917.00
2023-06-16T05:52:45.868Z,2909.00
2023-06-16T05:53:45.869Z,2894.00
2023-06-16T05:54:45.940Z,2887.00
2023-06-16T05:55:45.977Z,2877.00
2023-06-16T05:56:46.023Z,2858.00
2023-06-16T05:57:46.126Z,2858.00
2023-06-16T05:58:46.160Z,2816.00
2023-06-16T05:59:46.150Z,2788.00
2023-06-16T06:00:46.531Z,2781.00
2023-06-16T06:01:46.161Z,2735.00
2023-06-16T06:03:46.391Z,2679.00
2023-06-16T06:04:46.226Z,2696.00
2023-06-16T06:05:46.253Z,2680.00
2023-06-16T06:06:46.208Z,2674.00
2023-06-16T06:07:46.253Z,2684.00
2023-06-16T06:08:46.227Z,2694.00
2023-06-16T06:09:46.182Z,2688.00
2023-06-16T06:10:46.176Z,2695.00
2023-06-16T06:11:46.241Z,2695.00
2023-06-16T06:12:46.229Z,2686.00
2023-06-16T06:13:46.556Z,2680.00
2023-06-16T06:14:46.200Z,2706.00
2023-06-16T06:15:46.285Z,2716.00
2023-06-16T06:16:46.436Z,2697.00
2023-06-16T06:17:46.427Z,2693.00
2023-06-16T06:18:46.478Z,2693.00
2023-06-16T06:19:46.536Z,2715.00
2023-06-16T06:20:46.577Z,2692.00
2023-06-16T06:21:46.686Z,2672.00
2023-06-16T06:22:48.796Z,2676.00
2023-06-16T06:23:46.821Z,2663.00
2023-06-16T06:24:47.034Z,2659.00
2023-06-16T06:25:46.864Z,2674.00
2023-06-16T06:26:46.887Z,2677.00
2023-06-16T06:27:46.932Z,2665.00
2023-06-16T06:28:46.972Z,2668.00
2023-06-16T06:29:47.013Z,2657.00
2023-06-16T06:30:47.027Z,2659.00
2023-06-16T06:31:47.544Z,2681.00
2023-06-16T06:32:47.232Z,2706.00
2023-06-16T06:33:47.147Z,2683.00
2023-06-16T06:34:47.221Z,2686.00
2023-06-16T06:35:47.230Z,2702.00
2023-06-16T06:36:47.539Z,2730.00
2023-06-16T06:37:47.263Z,2762.00
2023-06-16T06:38:47.282Z,2738.00
2023-06-16T06:39:47.351Z,2730.00
2023-06-16T06:40:47.319Z,2710.00
2023-06-16T06:41:47.355Z,2738.00
2023-06-16T06:42:47.374Z,2700.00
2023-06-16T06:43:47.446Z,2698.00
2023-06-16T06:44:47.419Z,2707.00
2023-06-16T06:45:47.439Z,2654.00
2023-06-16T06:46:47.537Z,2643.00
2023-06-16T06:47:47.466Z,2617.00
2023-06-16T06:48:47.522Z,2633.00
2023-06-16T06:49:47.461Z,2611.00
2023-06-16T06:50:47.454Z,2620.00
2023-06-16T06:51:47.500Z,2599.00
2023-06-16T06:52:47.472Z,2640.00
2023-06-16T06:53:47.488Z,2698.00
2023-06-16T06:54:47.443Z,2700.00
2023-06-16T06:55:47.462Z,2710.00
2023-06-16T06:56:47.470Z,2762.00
2023-06-16T06:57:47.475Z,2782.00
2023-06-16T06:58:47.489Z,2781.00
2023-06-16T06:59:47.503Z,2775.00
2023-06-16T07:00:47.471Z,2800.00
2023-06-16T07:01:47.532Z,2815.00
2023-06-16T07:02:47.588Z,2816.00
2023-06-16T07:03:47.671Z,2829.00
2023-06-16T07:04:47.539Z,2811.00
2023-06-16T07:05:47.560Z,2776.00
2023-06-16T07:06:47.641Z,2800.00
2023-06-16T07:07:47.641Z,2786.00
2023-06-16T07:08:47.699Z,2788.00
2023-06-16T07:09:47.760Z,2794.00
2023-06-16T07:10:47.802Z,2812.00
2023-06-16T07:11:47.861Z,2804.00
2023-06-16T07:12:47.914Z,2796.00
2023-06-16T07:13:47.990Z,2782.00
2023-06-16T07:14:48.032Z,2760.00
2023-06-16T07:15:48.134Z,2745.00
2023-06-16T07:16:48.183Z,2728.00
2023-06-16T07:17:48.276Z,2719.00
2023-06-16T07:18:48.305Z,2702.00
2023-06-16T07:19:48.307Z,2687.00
2023-06-16T07:20:48.433Z,2667.00
2023-06-16T07:21:48.496Z,2647.00
2023-06-16T07:22:48.596Z,2622.00
2023-06-16T07:23:48.588Z,2615.00
2023-06-16T07:24:48.650Z,2603.00
2023-06-16T07:25:48.697Z,2595.00
2023-06-16T07:26:48.727Z,2596.00
2023-06-16T07:27:49.200Z,2599.00
2023-06-16T07:28:49.058Z,2638.00
2023-06-16T07:29:48.820Z,2618.00
2023-06-16T07:30:48.863Z,2621.00
2023-06-16T07:31:48.936Z,2621.00
2023-06-16T07:32:49.026Z,2646.00
2023-06-16T07:33:49.059Z,2677.00
2023-06-16T07:34:49.076Z,2704.00
2023-06-16T07:35:49.123Z,2697.00
2023-06-16T07:36:49.142Z,2708.00
2023-06-16T07:37:49.149Z,2674.00
2023-06-16T07:38:49.172Z,2613.00
2023-06-16T07:39:49.322Z,2570.00
2023-06-16T07:40:49.333Z,2514.00
2023-06-16T07:41:49.377Z,2464.00
2023-06-16T07:42:49.433Z,2463.00
2023-06-16T07:43:49.520Z,2422.00
2023-06-16T07:44:49.468Z,2353.00
2023-06-16T07:45:49.577Z,2300.00
2023-06-16T07:46:49.626Z,2279.00
2023-06-16T07:47:49.809Z,2233.00
2023-06-16T07:48:49.708Z,2176.00
2023-06-16T07:49:49.740Z,2118.00
2023-06-16T07:50:49.945Z,2075.00
2023-06-16T07:51:49.853Z,2044.00
2023-06-16T07:52:49.957Z,2047.00
2023-06-16T07:53:49.966Z,1984.00
2023-06-16T07:54:50.071Z,2001.00
2023-06-16T07:55:50.569Z,1962.00
2023-06-16T07:56:50.169Z,1937.00
2023-06-16T07:57:50.342Z,1890.00
2023-06-16T07:58:50.277Z,1824.00
2023-06-16T07:59:50.354Z,1775.00
2023-06-16T08:00:50.422Z,1735.00
2023-06-16T08:01:50.575Z,1710.00
2023-06-16T08:02:50.624Z,1719.00
2023-06-16T08:03:50.689Z,1683.00
2023-06-16T08:04:50.675Z,1660.00
2023-06-16T08:05:50.676Z,1616.00
2023-06-16T08:06:50.824Z,1566.00
2023-06-16T08:07:50.772Z,1547.00
2023-06-16T08:08:50.920Z,1532.00
2023-06-16T08:09:50.945Z,1520.00
2023-06-16T08:10:50.948Z,1472.00
2023-06-16T08:11:50.993Z,1521.00
2023-06-16T08:12:51.065Z,1567.00
2023-06-16T08:13:51.119Z,1572.00
2023-06-16T08:14:51.187Z,1623.00
2023-06-16T08:15:51.274Z,1643.00
2023-06-16T08:16:51.292Z,1658.00
2023-06-16T08:17:51.379Z,1704.00
2023-06-16T08:18:51.363Z,1797.00
2023-06-16T08:19:51.453Z,1848.00
2023-06-16T08:20:51.496Z,1906.00
2023-06-16T08:21:51.555Z,1940.00
2023-06-16T08:22:51.709Z,2014.00
2023-06-16T08:23:51.685Z,2064.00
2023-06-16T08:24:52.110Z,2092.00
2023-06-16T08:25:52.095Z,2135.00
2023-06-16T08:26:51.831Z,2158.00
2023-06-16T08:27:51.924Z,1970.00
2023-06-16T08:28:51.925Z,1690.00
2023-06-16T08:29:51.967Z,1395.00
2023-06-16T08:30:52.056Z,1176.00
2023-06-16T08:31:52.018Z,1095.00
2023-06-16T08:32:52.048Z,1064.00
2023-06-16T08:33:52.025Z,1025.00
2023-06-16T08:34:52.104Z,862.00
2023-06-16T08:35:52.167Z,879.00
2023-06-16T08:36:52.184Z,972.00
2023-06-16T08:37:52.610Z,1018.00
2023-06-16T08:38:52.329Z,1068.00
2023-06-16T08:39:52.391Z,1129.00
2023-06-16T08:40:52.444Z,1225.00
2023-06-16T08:41:52.410Z,1277.00
2023-06-16T08:42:52.455Z,1306.00
2023-06-16T08:43:52.452Z,1298.00
2023-06-16T08:44:52.511Z,1286.00
2023-06-16T08:45:52.517Z,1338.00
2023-06-16T08:46:54.032Z,1427.00
2023-06-16T08:47:52.780Z,1453.00
2023-06-16T08:48:52.573Z,1504.00
2023-06-16T08:49:52.620Z,1553.00
2023-06-16T08:50:52.605Z,1551.00
2023-06-16T08:51:53.653Z,1553.00
2023-06-16T08:52:52.746Z,1571.00
2023-06-16T08:53:53.142Z,1576.00
2023-06-16T08:54:52.635Z,1582.00
2023-06-16T08:55:52.642Z,1560.00
2023-06-16T08:56:52.659Z,1590.00
2023-06-16T08:57:53.116Z,1564.00
2023-06-16T08:58:52.653Z,1536.00
2023-06-16T08:59:53.126Z,1550.00
2023-06-16T09:00:52.617Z,1549.00
2023-06-16T09:01:53.108Z,1547.00
2023-06-16T09:02:52.720Z,1537.00
2023-06-16T09:03:52.699Z,1535.00
2023-06-16T09:04:52.688Z,1500.00
2023-06-16T09:05:52.661Z,1443.00
2023-06-16T09:06:53.100Z,1381.00
2023-06-16T09:07:52.620Z,1371.00
2023-06-16T09:08:52.651Z,1372.00
2023-06-16T09:09:52.698Z,1356.00
2023-06-16T09:10:52.744Z,1332.00
2023-06-16T09:11:52.658Z,1336.00
2023-06-16T09:12:52.659Z,1281.00
2023-06-16T09:13:53.394Z,1268.00
2023-06-16T09:14:52.668Z,1242.00
2023-06-16T09:15:52.672Z,1250.00
2023-06-16T09:16:52.753Z,1256.00
2023-06-16T09:17:52.733Z,1259.00
2023-06-16T09:18:52.750Z,1256.00
2023-06-16T09:19:52.718Z,1293.00
2023-06-16T09:20:52.685Z,1297.00
2023-06-16T09:21:52.723Z,1303.00
2023-06-16T09:22:52.690Z,1307.00
2023-06-16T09:23:52.699Z,1310.00
2023-06-16T09:24:52.702Z,1320.00
2023-06-16T09:25:52.681Z,1325.00
2023-06-16T09:26:52.719Z,1283.00
2023-06-16T09:27:52.711Z,1302.00
2023-06-16T09:28:53.143Z,1300.00
2023-06-16T09:29:52.681Z,1316.00
2023-06-16T09:31:06.882Z,1304.00
2023-06-16T09:31:53.669Z,1284.00
2023-06-16T09:32:52.711Z,1260.00
2023-06-16T09:33:52.663Z,1277.00
2023-06-16T09:34:53.122Z,1346.00
2023-06-16T09:35:52.686Z,1425.00
2023-06-16T09:36:52.709Z,1494.00
2023-06-16T09:37:52.694Z,1605.00
2023-06-16T09:38:52.622Z,1729.00
2023-06-16T09:39:52.650Z,1798.00
2023-06-16T09:40:52.603Z,1887.00
2023-06-16T09:41:53.615Z,1981.00
2023-06-16T09:42:52.645Z,2071.00
2023-06-16T09:43:52.594Z,2168.00
2023-06-16T09:44:52.572Z,2225.00
2023-06-16T09:45:52.615Z,2283.00
2023-06-16T09:46:53.137Z,2313.00
2023-06-16T09:47:52.657Z,2380.00
2023-06-16T09:48:52.565Z,2421.00
2023-06-16T09:49:52.562Z,2496.00
2023-06-16T09:50:52.581Z,2513.00
2023-06-16T09:51:52.619Z,2563.00
2023-06-16T09:52:52.648Z,2599.00
2023-06-16T09:53:52.738Z,2653.00
2023-06-16T09:54:52.733Z,2658.00
2023-06-16T09:55:52.811Z,2690.00
2023-06-16T09:56:52.893Z,2721.00
2023-06-16T09:57:52.926Z,2717.00
2023-06-16T09:58:52.963Z,2735.00
2023-06-16T09:59:53.035Z,2757.00
2023-06-16T10:00:53.055Z,2763.00
2023-06-16T10:01:53.071Z,2790.00
2023-06-16T10:02:53.277Z,2801.00
2023-06-16T10:03:53.259Z,2823.00
2023-06-16T10:04:53.223Z,2861.00
2023-06-16T10:05:53.281Z,2876.00
2023-06-16T10:06:53.332Z,2885.00
2023-06-16T10:07:53.368Z,2882.00
2023-06-16T10:08:53.457Z,2921.00
2023-06-16T10:10:53.540Z,2965.00
2023-06-16T10:11:53.619Z,2951.00
2023-06-16T10:12:53.631Z,2956.00
2023-06-16T10:13:53.492Z,2972.00
2023-06-16T10:14:53.449Z,2976.00
2023-06-16T10:15:53.478Z,2971.00
2023-06-16T10:16:53.477Z,2969.00
2023-06-16T10:17:53.585Z,2990.00
2023-06-16T10:18:53.503Z,3021.00
2023-06-16T10:19:53.416Z,3045.00
2023-06-16T10:20:53.422Z,3067.00
2023-06-16T10:21:53.430Z,3082.00
2023-06-16T10:22:53.413Z,3095.00
2023-06-16T10:23:53.492Z,3090.00
2023-06-16T10:24:53.408Z,3108.00
2023-06-16T10:25:53.401Z,3111.00
2023-06-16T10:26:53.400Z,3131.00
2023-06-16T10:27:53.638Z,3132.00
2023-06-16T10:28:53.401Z,3129.00
2023-06-16T10:29:53.387Z,3159.00
2023-06-16T10:30:53.413Z,3167.00
2023-06-16T10:31:53.339Z,3207.00
2023-06-16T10:32:53.438Z,3233.00
2023-06-16T10:33:53.324Z,3226.00
2023-06-16T10:34:53.364Z,3198.00
2023-06-16T10:36:00.532Z,3172.00
2023-06-16T10:36:54.325Z,3173.00
2023-06-16T10:37:53.304Z,3149.00
2023-06-16T10:38:53.408Z,3174.00
2023-06-16T10:39:53.630Z,3160.00
2023-06-16T10:40:55.440Z,3130.00
2023-06-16T10:41:53.325Z,3099.00
2023-06-16T10:42:53.314Z,3102.00
2023-06-16T10:43:53.278Z,3085.00
2023-06-16T10:44:53.326Z,3064.00
2023-06-16T10:45:53.337Z,3041.00
2023-06-16T10:46:53.360Z,3048.00
2023-06-16T10:47:53.407Z,3027.00
2023-06-16T10:48:53.217Z,3029.00
2023-06-16T10:49:53.240Z,3044.00
2023-06-16T10:50:53.239Z,3043.00
2023-06-16T10:51:53.245Z,3019.00
2023-06-16T10:52:53.245Z,3027.00
2023-06-16T10:53:53.231Z,2998.00
2023-06-16T10:54:53.222Z,2894.00
2023-06-16T10:55:53.227Z,2869.00
2023-06-16T10:57:06.833Z,2812.00
2023-06-16T10:57:54.672Z,2810.00
2023-06-16T10:58:53.212Z,2757.00
2023-06-16T10:59:53.152Z,2746.00
2023-06-16T11:00:53.154Z,2746.00
2023-06-16T11:01:53.238Z,2735.00
2023-06-16T11:02:53.356Z,2744.00
2023-06-16T11:03:55.678Z,2723.00
2023-06-16T11:04:53.114Z,2597.00
2023-06-16T11:05:53.120Z,2435.00
2023-06-16T11:07:03.243Z,2365.00
2023-06-16T11:07:54.269Z,2334.00
2023-06-16T11:08:53.106Z,2320.00
2023-06-16T11:09:53.120Z,2310.00
2023-06-16T11:10:53.075Z,2289.00
2023-06-16T11:11:53.093Z,2254.00
2023-06-16T11:12:53.159Z,2261.00
2023-06-16T11:13:53.086Z,2298.00
2023-06-16T11:14:53.194Z,2332.00
2023-06-16T11:15:53.110Z,2344.00
2023-06-16T11:16:53.094Z,2321.00
2023-06-16T11:17:53.164Z,2127.00
2023-06-16T11:18:53.117Z,1883.00
2023-06-16T11:19:53.223Z,1716.00
2023-06-16T11:20:53.176Z,1558.00
2023-06-16T11:21:53.180Z,1483.00
2023-06-16T11:22:53.104Z,1487.00
2023-06-16T11:23:53.155Z,1531.00
2023-06-16T11:24:53.120Z,1548.00
2023-06-16T11:25:53.142Z,1370.00
2023-06-16T11:26:53.174Z,1256.00
2023-06-16T11:27:53.209Z,1178.00
2023-06-16T11:28:53.227Z,1117.00
2023-06-16T11:29:53.294Z,1072.00
2023-06-16T11:30:53.361Z,1098.00
2023-06-16T11:31:53.343Z,1122.00
2023-06-16T11:32:53.383Z,1014.00
2023-06-16T11:33:53.349Z,1014.00
2023-06-16T11:34:53.396Z,1008.00
2023-06-16T11:35:53.472Z,1013.00
2023-06-16T11:36:53.446Z,1026.00
2023-06-16T11:37:53.517Z,1110.00
2023-06-16T11:38:53.567Z,1141.00
2023-06-16T11:39:53.575Z,1205.00
2023-06-16T11:41:06.676Z,1100.00
2023-06-16T11:42:01.793Z,1052.00
2023-06-16T11:42:54.642Z,1042.00
2023-06-16T11:43:53.598Z,1006.00
2023-06-16T11:44:53.629Z,1025.00
2023-06-16T11:45:53.598Z,1083.00
2023-06-16T11:46:53.604Z,1245.00
2023-06-16T11:47:53.601Z,1388.00
2023-06-16T11:48:53.572Z,1546.00
2023-06-16T11:49:53.559Z,1664.00
2023-06-16T11:50:53.667Z,1762.00
2023-06-16T11:51:53.551Z,1811.00
2023-06-16T11:52:53.555Z,1839.00
2023-06-16T11:53:53.600Z,1834.00
2023-06-16T11:54:53.530Z,1799.00
2023-06-16T11:55:53.508Z,1750.00
2023-06-16T11:56:53.519Z,1735.00
2023-06-16T11:57:53.511Z,1738.00
2023-06-16T11:58:53.481Z,1770.00
2023-06-16T11:59:53.490Z,1681.00
2023-06-16T12:00:53.510Z,1586.00
2023-06-16T12:01:53.515Z,1563.00
2023-06-16T12:02:53.531Z,1636.00
2023-06-16T12:04:05.039Z,1731.00
2023-06-16T12:04:54.482Z,1733.00
2023-06-16T12:05:53.549Z,1747.00
2023-06-16T12:06:53.457Z,1788.00
2023-06-16T12:07:53.448Z,1831.00